NCAR-RAP Real-Time Weather Data

Output produced by METARs form (20 February 2019  18:23 UTC)
found at http://weather.rap.ucar.edu/surface/
 
RJFF 201800Z AUTO 06003KT 030V090 9999 FEW046 BKN130 OVC140 07/03 Q1023 NOSIG RMK A3023
RJFF 201730Z AUTO 07003KT 040V110 9999 NSC 08/02 Q1023 NOSIG RMK A3023
RJFF 201700Z AUTO VRB02KT 9999 FEW043 SCT047 BKN130 07/02 Q1024 NOSIG RMK A3024
RJFF 201630Z AUTO VRB01KT 9999 FEW047 BKN140 06/03 Q1024 NOSIG RMK A3025
RJFF 201600Z AUTO VRB01KT 9999 FEW049 SCT150 06/03 Q1024 NOSIG RMK A3024
RJFF 201530Z AUTO VRB01KT 9999 SCT046 BKN049 07/03 Q1023 NOSIG RMK A3023
RJFF 201500Z AUTO 06003KT 9999 FEW040 BKN043 BKN048 07/04 Q1023 BECMG 14005KT
RJFF 201430Z AUTO VRB02KT 9999 FEW040 SCT045 BKN250 07/03 Q1023 NOSIG RMK A3023
RJFF 201400Z AUTO 06002KT 9999 BKN039 OVC044 08/03 Q1023 BECMG 14005KT RMK A3023
RJFF 201330Z VRB01KT 9999 FEW030 BKN045 BKN/// 08/03 Q1023 NOSIG
RJFF 201300Z 06003KT 9999 FEW030 SCT035 BKN045 09/03 Q1023 BECMG 35005KT
RJFF 201230Z VRB02KT 9999 FEW025 SCT030 BKN040 08/03 Q1023 BECMG 35005KT
RJFF 201200Z 34005KT 280V060 9999 FEW025 SCT030 BKN040 09/03 Q1023 NOSIG RMK 1CU025 3CU030 6CU040 A3023
RJFF 201130Z VRB05KT 9999 FEW025 BKN040 09/02 Q1023 BECMG 33006KT
RJFF 201100Z 30005KT 210V340 9999 FEW025 BKN040 09/02 Q1023 NOSIG RMK 1CU025 5CU040 A3022
RJFF 201030Z 29005KT 190V330 9999 FEW025 BKN035 09/02 Q1023 NOSIG RMK 1CU025 5CU035 A3022
RJFF 201000Z 30005KT 240V350 9999 FEW025 SCT035 09/02 Q1022 NOSIG RMK 1CU025 3CU035 A3021
RJFF 200930Z 30006KT 240V330 9999 FEW025 SCT035 09/02 Q1022 NOSIG RMK 1CU025 3CU035 A3020
RJFF 200900Z 30008KT 270V340 9999 FEW020 SCT035 09/02 Q1023 NOSIG RMK 1CU020 4CU035 A3021
RJFF 200830Z 30009KT 9999 FEW025 SCT035 10/03 Q1022 NOSIG RMK 1CU025 3CU035 A3020
RJFF 200800Z 30010KT 9999 FEW025 SCT035 10/02 Q1022 NOSIG RMK 1CU025 3CU035 A3019
RJFF 200730Z 30010KT 9999 FEW025 BKN035 10/03 Q1022 NOSIG RMK 1CU025 6CU035 A3019
RJFF 200700Z 31012KT 280V340 9999 FEW020 SCT025 BKN035 10/04 Q1022 NOSIG RMK 1CU020 3CU025 6CU035 A3019
RJFF 200630Z 31012KT 9999 FEW020 SCT025 BKN035 10/05 Q1022 NOSIG RMK 1CU020 4CU025 6CU035 A3019
RJFF 200600Z 30012KT 9999 FEW020 SCT025 BKN035 10/04 Q1022 NOSIG RMK 2CU020 4CU025 6CU035 A3018
RJFF 200530Z 31013KT 9999 FEW015 SCT020 BKN030 10/05 Q1021 NOSIG RMK 1CU015 4CU020 6CU030 A3017
RJFF 200500Z 29011KT 9999 FEW015 SCT020 BKN030 10/06 Q1021 NOSIG RMK 1CU015 4CU020 6CU030 A3017
RJFF 200430Z 29011KT 9999 FEW025 BKN030 BKN040 11/04 Q1021 NOSIG RMK 2CU025 5CU030 6CU040 A3016
RJFF 200400Z 30011KT 9999 FEW030 SCT035 BKN045 12/04 Q1021 NOSIG RMK 1CU030 4CU035 6CU045 A3017
RJFF 200330Z 28010KT 250V330 9999 FEW025 BKN035 BKN045 12/03 Q1022 NOSIG RMK 1CU025 5CU035 6CU045 A3019
RJFF 200300Z 27011KT 190V320 9999 FEW025 SCT035 BKN045 12/04 Q1022 NOSIG RMK 1CU025 3CU035 6CU045 A3020
RJFF 200230Z 25012KT 190V280 9999 FEW025 SCT035 BKN045 12/03 Q1022 NOSIG RMK 1CU025 3CU035 6CU045 A3020
RJFF 200200Z 26011G21KT 220V310 9999 FEW025 SCT035 11/03 Q1022 NOSIG RMK 1CU025 3CU035 A3020
RJFF 200130Z 24008KT 180V290 9999 FEW025 SCT035 11/04 Q1022 BECMG 31011KT
RJFF 200100Z 24010G21KT 150V280 9999 FEW025 SCT030 11/03 Q1022 BECMG 31011KT RMK 1CU025 3CU030 A3018
RJFF 200030Z 24007G18KT 190V280 9999 FEW020 11/04 Q1022 BECMG 31011KT
RJFF 200000Z 26008KT 220V290 9999 FEW020 SCT030 10/04 Q1021 NOSIG RMK 1CU020 4CU030 A3018
RJFF 192330Z 25007KT 190V290 9999 FEW020 SCT035 10/04 Q1021 NOSIG RMK 1CU020 3CU035 A3016
RJFF 192300Z 26006G17KT 160V320 9999 FEW020 BKN035 10/04 Q1021 NOSIG RMK 1CU020 5CU035 A3017
RJFF 192230Z 27006KT 180V310 9999 FEW020 SCT030 BKN035 10/04 Q1021 NOSIG RMK 1CU020 3CU030 5CU035 A3016
RJFF 192200Z 28009KT 250V310 9999 FEW015 SCT025 BKN035 10/05 Q1020 NOSIG RMK 1CU015 3CU025 6CU035 A3015
RJFF 192130Z 28007KT 240V320 9999 FEW015 BKN025 BKN030 11/05 Q1020 NOSIG RMK 1CU015 5CU025 6CU030 A3014
RJFF 192100Z 28008KT 230V300 9999 FEW015 SCT025 BKN030 11/06 Q1020 NOSIG RMK 1CU015 4CU025 6CU030 A3013
RJFF 192030Z AUTO 28008KT 9999 FEW025 BKN028 BKN033 11/06 Q1019 NOSIG RMK A3011
RJFF 192000Z AUTO 29007KT 9999 FEW026 OVC027 11/06 Q1019 NOSIG RMK A3009
RJFF 191930Z AUTO 29007KT 9999 BKN023 BKN028 OVC031 11/07 Q1019 NOSIG RMK A3010
RJFF 191900Z AUTO 28006KT 240V320 9999 SCT022 BKN033 OVC035 11/07 Q1019 NOSIG RMK A3011
RJFF 191830Z AUTO 26007KT 220V290 9999 OVC030 12/07 Q1019 NOSIG RMK A3009
RJFF 191800Z AUTO 27010KT 210V300 9999 OVC033 12/07 Q1019 NOSIG RMK A3010
RJFF 191730Z AUTO 27008KT 240V330 9999 SCT029 OVC033 12/07 Q1019 NOSIG RMK A3010
RJFF 191700Z AUTO 28006KT 250V320 9999 BKN026 OVC034 12/08 Q1019 NOSIG RMK A3010
RJFF 191630Z AUTO 28008KT 260V320 9999 OVC023 12/08 Q1019 NOSIG RMK A3009
RJFF 191600Z AUTO 28009KT 9999 SCT022 BKN027 12/09 Q1018 NOSIG RMK A3009
RJFF 191530Z AUTO 28010KT 9999 FEW009 BKN017 BKN033 12/10 Q1018 NOSIG RMK A3009
RJFF 191514Z AUTO 28009KT 240V310 9999 FEW007 BKN017 BKN030 12/10 Q1018 RMK A3008
RJFF 191500Z AUTO 29010KT 9999 FEW007 SCT008 BKN010 12/10 Q1018 BECMG TL1530 FEW008 SCT010 BKN015 RMK A3009
RJFF 191450Z AUTO 29008KT 6000 SCT007 BKN009 BKN017 12/11 Q1018 RMK A3009
RJFF 191448Z AUTO 29008KT 9999 SCT007 SCT009 BKN013 12/11 Q1018 RMK A3009
RJFF 191430Z AUTO 29009KT 9999 FEW007 SCT009 BKN016 12/11 Q1018 NOSIG RMK A3008
RJFF 191410Z AUTO 29011KT 9999 FEW008 BKN012 OVC016 13/11 Q1018 RMK A3008
RJFF 191400Z AUTO 30011KT 9000 FEW008 SCT011 OVC015 13/11 Q1018 NOSIG RMK A3008
RJFF 191330Z 28006KT 240V310 9999 FEW010 SCT015 BKN020 13/11 Q1018 NOSIG RMK 1ST010 3CU015 5CU020 A3007
RJFF 191300Z 30008KT 260V330 9999 -SHRA FEW010 SCT015 BKN035 13/11 Q1018 NOSIG RMK 1ST010 3CU015 5CU035 A3006
RJFF 191230Z 28005KT 190V360 9999 FEW010 SCT015 BKN035 14/11 Q1017 NOSIG RMK 1ST010 4CU015 5CU035 A3005
RJFF 191200Z 28006KT 200V330 9999 FEW010 SCT015 BKN040 14/11 Q1017 NOSIG RMK 1ST010 4CU015 6CU040 A3005
RJFF 191130Z 25006KT 170V280 9999 FEW010 BKN030 BKN040 14/11 Q1017 NOSIG RMK 1ST010 5CU030 6CU040 A3004
RJFF 191100Z 29009KT 220V320 9999 FEW015 SCT025 BKN030 14/10 Q1017 NOSIG RMK 1CU015 4CU025 6CU030 A3003
RJFF 191030Z 28010KT 210V320 9999 FEW015 SCT020 BKN035 15/11 Q1016 NOSIG RMK 1CU015 3CU020 5CU035 A3002
RJFF 191000Z 28008KT 240V310 9999 FEW015 SCT025 BKN035 15/11 Q1016 NOSIG RMK 1CU015 3CU025 5CU035 A3000
RJFF 190930Z 29008KT 210V360 9999 -SHRA FEW010 SCT020 BKN025 15/12 Q1016 NOSIG RMK 1ST010 4CU020 6CU025 A3000
RJFF 190900Z 28013KT 240V300 9999 -SHRA FEW015 SCT025 BKN030 16/12 Q1015 NOSIG RMK 1CU015 3CU025 7CU030 A2998
RJFF 190830Z 27010G22KT 210V310 9999 FEW015 BKN025 BKN030 16/12 Q1015 NOSIG RMK 1CU015 5CU025 7CU030 A2997
RJFF 190800Z VRB10KT 9999 FEW015 SCT025 BKN030 17/12 Q1014 BECMG 29010KT RMK 1CU015 3CU025 6CU030 A2996
RJFF 190730Z 27013G23KT 240V040 9999 FEW015 SCT025 BKN035 17/12 Q1014 NOSIG RMK 1CU015 3CU025 5CU035 A2995
RJFF 190714Z 29018G28KT 9999 FEW020 SCT035 18/13 Q1013 RMK 1CU020 4CU035 A2993 P/RR
RJFF 190700Z 29016KT 9999 FEW020 SCT035 20/13 Q1013 TEMPO TL0800 29015G25KT RMK 1CU020 3CU035 A2992 P/RR
RJFF 190641Z 28016G26KT 9999 FEW015 SCT035 20/13 Q1012 RMK 1CU015 3CU035 A2989
RJFF 190630Z 28013KT 250V310 9999 FEW015 SCT035 21/14 Q1011 NOSIG RMK 1CU015 3CU035 A2988
RJFF 190611Z 30011KT 250V320 9999 FEW015 SCT035 21/14 Q1011 RMK 1CU015 3CU035 A2987
RJFF 190600Z 19012KT 9999 FEW015 SCT035 20/16 Q1010 BECMG FM0700 27007KT
RJFF 190530Z 19013KT 9999 FEW015 SCT030 21/16 Q1010 NOSIG RMK 1CU015 3CU030 A2984
RJFF 190500Z 15012KT 9999 FEW010 SCT025 BKN035 19/15 Q1010 NOSIG RMK 1ST010 3CU025 5CU035 A2984
RJFF 190430Z 16014G24KT 9999 FEW010 SCT030 BKN/// 18/15 Q1010 NOSIG
RJFF 190400Z 17012KT 140V210 9999 FEW010 SCT030 BKN140 18/15 Q1010 BECMG FM0430 29006KT RMK 1ST010 3CU030 6AC140 A2984
RJFF 190330Z 14010KT 100V170 9999 FEW015 SCT030 BKN140 17/15 Q1010 BECMG FM0430 29006KT
RJFF 190309Z 08006KT 9999 -SHRA FEW010 SCT020 BKN060 16/15 Q1011 RMK 1ST010 3CU020 6SC060 A2987
RJFF 190300Z 14014KT 090V170 9999 -SHRA FEW010 SCT020 BKN060 15/14 Q1011 WS R16 BECMG FM0400 29006KT
RJFF 190230Z 12016KT 100V160 9999 -SHRA FEW008 SCT020 BKN030 14/13 Q1011 NOSIG RMK 1ST008 4CU020 6CU030 A2988 LGT TO MOD TURB OBS AT 0203Z ON DEP COURSE RWY16 6000FT IN CMB A320
RJFF 190200Z 12012KT 9999 -SHRA FEW008 SCT020 BKN030 15/13 Q1012 TEMPO TL0300 16015G25KT 4000 SHRA BR
RJFF 190130Z 13012KT 080V170 9999 -SHRA FEW008 SCT020 BKN040 14/13 Q1012 TEMPO TL0300 18017G30KT 4000 SHRA BR
RJFF 190100Z 14022KT 9999 -SHRA FEW010 SCT040 BKN050 14/12 Q1012 TEMPO 18017G30KT 4000 SHRA BR RMK 1CU010 3CU040 5SC050 A2988
RJFF 190030Z 14016G27KT 9999 -RA FEW010 SCT040 BKN050 14/12 Q1012 TEMPO 4000 SHRA BR
RJFF 190000Z 15020KT 9999 FEW005 SCT025 BKN050 11/10 Q1012 TEMPO 18017G30KT 4000 SHRA BR
RJFF 182342Z 15015G25KT 9999 -RA FEW005 SCT025 BKN050 11/10 Q1012 RMK 1ST005 3CU025 5SC050 A2990
RJFF 182330Z 15016KT 9999 -RA FEW005 SCT035 BKN050 10/10 Q1013 TEMPO FM0100 18015G25KT 4000 SHRA BR
RJFF 182300Z 15017KT 7000 -RA FEW005 SCT030 BKN060 09/08 Q1013 NOSIG RMK 1ST005 3CU030 5SC060 A2992
RJFF 182230Z 15017KT 8000 -RA FEW005 SCT050 BKN070 09/08 Q1014 NOSIG RMK 1ST005 3SC050 6AC070 A2995
RJFF 182200Z 14020KT 8000 -RA FEW010 BKN070 BKN090 09/08 Q1014 NOSIG RMK 1ST010 5AC070 7AC090 A2996
RJFF 182130Z 13013KT 100V160 9000 -RA FEW030 SCT060 BKN070 09/08 Q1015 NOSIG RMK 1CU030 3SC060 7AC070 A2999 P/FR
RJFF 182100Z 14018KT 9000 -RA FEW030 SCT060 BKN070 08/07 Q1016 TEMPO 4000 SHRA BR RMK 1CU030 3SC060 7AC070 A3003
RJFF 182030Z AUTO 14014KT 8000 -RA NSC 08/07 Q1016 TEMPO 4000 SHRA BR
RJFF 182000Z AUTO 15016KT 9000 -RA NSC 08/07 Q1017 TEMPO 4000 SHRA BR RMK A3003
RJFF 181930Z AUTO 14017KT 8000 -RA NSC 08/07 Q1017 TEMPO FM2000 4000 SHRA BR
RJFF 181918Z AUTO 14015KT 8000 RA NSC 08/07 Q1018 RMK A3007 RI003
RJFF 181900Z AUTO 14012KT 9999 -RA NSC 08/06 Q1018 TEMPO FM2000 4000 SHRA BR
RJFF 181830Z AUTO 13012KT 9999 -RA FEW048 SCT060 BKN080 08/06 Q1019 TEMPO FM2000 4000 SHRA
RJFF 181800Z AUTO 13011KT 9999 -RA NSC 09/06 Q1019 NOSIG RMK A3012
RJFF 181730Z AUTO 13011KT 9999 -RA NSC 09/06 Q1020 NOSIG RMK A3013
RJFF 181700Z AUTO 12007KT 9999 -RA NSC 09/06 Q1021 NOSIG RMK A3015
RJFF 181630Z AUTO 11003KT 060V140 9999 -RA NSC 08/06 Q1022 NOSIG RMK A3018
RJFF 181600Z AUTO 13003KT 090V160 9999 -RA NSC 08/05 Q1022 NOSIG RMK A3018
RJFF 181530Z AUTO 11005KT 9999 -RA NSC 08/06 Q1022 NOSIG RMK A3019
RJFF 181500Z AUTO 11003KT 9999 -RA FEW037 OVC050 08/06 Q1023 NOSIG RMK A3021
RJFF 181430Z AUTO 18003KT 9999 -RA SCT038 BKN049 OVC050 09/06 Q1023 NOSIG RMK A3022
RJFF 181400Z AUTO 13003KT 090V170 9999 -RA FEW041 BKN050 OVC070 09/05 Q1023 NOSIG RMK A3021
RJFF 181330Z 14002KT CAVOK 09/04 Q1023 NOSIG RMK A3021
RJFF 181300Z 11003KT 070V150 9999 -RA NSC 09/04 Q1023 NOSIG RMK 1SC060 3AC090 6AC110 A3021
RJFF 181230Z VRB04KT CAVOK 10/03 Q1023 NOSIG RMK A3023
RJFF 181200Z 17005KT CAVOK 10/03 Q1023 NOSIG RMK A3023
RJFF 181130Z 18006KT 150V220 CAVOK 10/03 Q1023 NOSIG RMK 7AC070 A3023
RJFF 181100Z 18003KT 120V230 CAVOK 10/04 Q1023 NOSIG RMK 5AC070 A3023
RJFF 181030Z VRB02KT 9999 -RA NSC 10/04 Q1023 NOSIG RMK 1SC050 5AC070 7AC080 A3023
RJFF 181000Z VRB02KT CAVOK 11/03 Q1024 NOSIG RMK 7AC070 A3024
RJFF 180930Z 29004KT 250V320 CAVOK 11/03 Q1024 BECMG 14005KT
RJFF 180900Z 30004KT 230V340 9999 -RA NSC 11/03 Q1023 BECMG 14005KT
RJFF 180830Z 29005KT 230V340 9999 -RA NSC 11/02 Q1023 BECMG 14004KT
RJFF 180800Z 30004KT 220V320 CAVOK 11/01 Q1022 BECMG 14005KT RMK 7AC090 A3020
RJFF 180730Z 29005KT 220V360 9999 -RA NSC 11/01 Q1022 BECMG 14005KT
RJFF 180700Z 31004KT 200V340 CAVOK 11/00 Q1022 NOSIG RMK A3019
RJFF 180630Z 31007KT 260V020 CAVOK 11/00 Q1022 NOSIG RMK A3019